sensor_id;sensor_type;location;lat;lon;timestamp;P1;durP1;ratioP1;P2;durP2;ratioP2
63534;SDS011;55128;50.230;18.944;2023-11-21T00:01:02;14.50;;;10.15;;
63534;SDS011;55128;50.230;18.944;2023-11-21T00:06:04;13.38;;;8.32;;
63534;SDS011;55128;50.230;18.944;2023-11-21T00:11:05;14.98;;;9.75;;
63534;SDS011;55128;50.230;18.944;2023-11-21T00:16:05;13.65;;;9.10;;
63534;SDS011;55128;50.230;18.944;2023-11-21T00:21:07;13.38;;;9.05;;
63534;SDS011;55128;50.230;18.944;2023-11-21T00:26:08;12.88;;;9.05;;
63534;SDS011;55128;50.230;18.944;2023-11-21T00:31:09;12.63;;;9.23;;
63534;SDS011;55128;50.230;18.944;2023-11-21T00:36:09;15.20;;;11.13;;
63534;SDS011;55128;50.230;18.944;2023-11-21T00:41:10;18.50;;;12.43;;
63534;SDS011;55128;50.230;18.944;2023-11-21T00:46:10;16.10;;;11.45;;
63534;SDS011;55128;50.230;18.944;2023-11-21T00:51:11;16.67;;;12.18;;
63534;SDS011;55128;50.230;18.944;2023-11-21T00:56:11;16.13;;;11.30;;
63534;SDS011;55128;50.230;18.944;2023-11-21T01:01:12;20.55;;;11.93;;
63534;SDS011;55128;50.230;18.944;2023-11-21T01:06:12;14.07;;;9.38;;
63534;SDS011;55128;50.230;18.944;2023-11-21T01:11:13;13.20;;;8.68;;
63534;SDS011;55128;50.230;18.944;2023-11-21T01:16:13;11.50;;;7.32;;
63534;SDS011;55128;50.230;18.944;2023-11-21T01:21:14;7.63;;;5.35;;
63534;SDS011;55128;50.230;18.944;2023-11-21T01:26:14;8.75;;;5.65;;
63534;SDS011;55128;50.230;18.944;2023-11-21T01:31:15;9.63;;;5.82;;
63534;SDS011;55128;50.230;18.944;2023-11-21T01:36:15;7.82;;;5.10;;
63534;SDS011;55128;50.230;18.944;2023-11-21T01:41:17;11.00;;;6.30;;
63534;SDS011;55128;50.230;18.944;2023-11-21T01:46:17;7.60;;;5.60;;
63534;SDS011;55128;50.230;18.944;2023-11-21T01:51:19;8.10;;;5.13;;
63534;SDS011;55128;50.230;18.944;2023-11-21T01:56:20;9.00;;;4.97;;
63534;SDS011;55128;50.230;18.944;2023-11-21T02:01:21;7.85;;;4.93;;
63534;SDS011;55128;50.230;18.944;2023-11-21T02:06:21;8.43;;;4.80;;
63534;SDS011;55128;50.230;18.944;2023-11-21T02:11:22;7.05;;;5.10;;
63534;SDS011;55128;50.230;18.944;2023-11-21T02:16:22;8.32;;;5.00;;
63534;SDS011;55128;50.230;18.944;2023-11-21T02:21:23;9.65;;;5.00;;
63534;SDS011;55128;50.230;18.944;2023-11-21T02:26:25;7.07;;;4.80;;
63534;SDS011;55128;50.230;18.944;2023-11-21T02:31:26;8.48;;;4.82;;
63534;SDS011;55128;50.230;18.944;2023-11-21T02:36:27;8.07;;;5.15;;
63534;SDS011;55128;50.230;18.944;2023-11-21T02:41:27;10.18;;;4.88;;
63534;SDS011;55128;50.230;18.944;2023-11-21T02:46:29;6.63;;;4.95;;
63534;SDS011;55128;50.230;18.944;2023-11-21T02:51:30;8.52;;;5.05;;
63534;SDS011;55128;50.230;18.944;2023-11-21T02:56:30;8.00;;;5.57;;
63534;SDS011;55128;50.230;18.944;2023-11-21T03:01:31;8.73;;;5.75;;
63534;SDS011;55128;50.230;18.944;2023-11-21T03:06:31;9.18;;;5.50;;
63534;SDS011;55128;50.230;18.944;2023-11-21T03:11:32;11.55;;;6.13;;
63534;SDS011;55128;50.230;18.944;2023-11-21T03:16:32;11.23;;;6.53;;
63534;SDS011;55128;50.230;18.944;2023-11-21T03:21:33;11.38;;;5.97;;
63534;SDS011;55128;50.230;18.944;2023-11-21T03:26:33;9.50;;;6.45;;
63534;SDS011;55128;50.230;18.944;2023-11-21T03:31:34;13.15;;;6.57;;
63534;SDS011;55128;50.230;18.944;2023-11-21T03:36:34;11.70;;;7.03;;
63534;SDS011;55128;50.230;18.944;2023-11-21T03:41:36;13.25;;;6.60;;
63534;SDS011;55128;50.230;18.944;2023-11-21T03:46:37;12.27;;;7.45;;
63534;SDS011;55128;50.230;18.944;2023-11-21T03:51:37;12.68;;;6.75;;
63534;SDS011;55128;50.230;18.944;2023-11-21T03:56:37;13.20;;;6.15;;
63534;SDS011;55128;50.230;18.944;2023-11-21T04:01:38;13.23;;;6.90;;
63534;SDS011;55128;50.230;18.944;2023-11-21T04:06:38;10.02;;;6.65;;
63534;SDS011;55128;50.230;18.944;2023-11-21T04:11:39;10.40;;;7.18;;
63534;SDS011;55128;50.230;18.944;2023-11-21T04:16:40;11.23;;;7.20;;
63534;SDS011;55128;50.230;18.944;2023-11-21T04:21:41;10.57;;;6.93;;
63534;SDS011;55128;50.230;18.944;2023-11-21T04:26:43;13.40;;;8.60;;
63534;SDS011;55128;50.230;18.944;2023-11-21T04:31:43;11.88;;;7.90;;
63534;SDS011;55128;50.230;18.944;2023-11-21T04:36:44;14.43;;;9.07;;
63534;SDS011;55128;50.230;18.944;2023-11-21T04:41:44;13.98;;;9.35;;
63534;SDS011;55128;50.230;18.944;2023-11-21T04:46:45;13.23;;;8.90;;
63534;SDS011;55128;50.230;18.944;2023-11-21T04:51:45;14.13;;;10.65;;
63534;SDS011;55128;50.230;18.944;2023-11-21T04:56:46;14.85;;;10.93;;
63534;SDS011;55128;50.230;18.944;2023-11-21T05:01:46;15.88;;;12.32;;
63534;SDS011;55128;50.230;18.944;2023-11-21T05:06:46;20.70;;;13.65;;
63534;SDS011;55128;50.230;18.944;2023-11-21T05:11:47;22.25;;;14.02;;
63534;SDS011;55128;50.230;18.944;2023-11-21T05:16:48;18.92;;;13.13;;
63534;SDS011;55128;50.230;18.944;2023-11-21T05:21:50;18.35;;;13.73;;
63534;SDS011;55128;50.230;18.944;2023-11-21T05:26:51;21.40;;;14.00;;
63534;SDS011;55128;50.230;18.944;2023-11-21T05:31:51;17.42;;;11.85;;
63534;SDS011;55128;50.230;18.944;2023-11-21T05:36:53;15.68;;;10.98;;
63534;SDS011;55128;50.230;18.944;2023-11-21T05:41:53;16.70;;;11.43;;
63534;SDS011;55128;50.230;18.944;2023-11-21T05:46:53;16.20;;;11.73;;
63534;SDS011;55128;50.230;18.944;2023-11-21T05:51:54;14.63;;;10.98;;
63534;SDS011;55128;50.230;18.944;2023-11-21T05:56:54;15.13;;;11.70;;
63534;SDS011;55128;50.230;18.944;2023-11-21T06:01:55;16.35;;;12.45;;
63534;SDS011;55128;50.230;18.944;2023-11-21T06:06:55;16.00;;;10.75;;
63534;SDS011;55128;50.230;18.944;2023-11-21T06:11:56;16.92;;;11.95;;
63534;SDS011;55128;50.230;18.944;2023-11-21T06:16:56;15.95;;;11.85;;
63534;SDS011;55128;50.230;18.944;2023-11-21T06:21:57;17.25;;;12.75;;
63534;SDS011;55128;50.230;18.944;2023-11-21T06:26:58;18.63;;;12.60;;
63534;SDS011;55128;50.230;18.944;2023-11-21T06:31:58;18.67;;;13.02;;
63534;SDS011;55128;50.230;18.944;2023-11-21T06:36:59;17.73;;;12.93;;
63534;SDS011;55128;50.230;18.944;2023-11-21T06:41:59;19.13;;;13.02;;
63534;SDS011;55128;50.230;18.944;2023-11-21T06:47:00;19.05;;;13.52;;
63534;SDS011;55128;50.230;18.944;2023-11-21T06:52:00;19.90;;;14.90;;
63534;SDS011;55128;50.230;18.944;2023-11-21T06:57:02;18.73;;;13.63;;
63534;SDS011;55128;50.230;18.944;2023-11-21T07:02:03;23.17;;;13.80;;
63534;SDS011;55128;50.230;18.944;2023-11-21T07:07:06;20.23;;;13.27;;
63534;SDS011;55128;50.230;18.944;2023-11-21T07:12:09;25.48;;;16.00;;
63534;SDS011;55128;50.230;18.944;2023-11-21T07:17:11;22.00;;;16.20;;
63534;SDS011;55128;50.230;18.944;2023-11-21T07:22:12;26.90;;;17.73;;
63534;SDS011;55128;50.230;18.944;2023-11-21T07:27:13;23.27;;;17.40;;
63534;SDS011;55128;50.230;18.944;2023-11-21T07:32:14;20.25;;;15.05;;
63534;SDS011;55128;50.230;18.944;2023-11-21T07:37:14;21.92;;;14.82;;
63534;SDS011;55128;50.230;18.944;2023-11-21T07:42:15;21.23;;;14.93;;
63534;SDS011;55128;50.230;18.944;2023-11-21T07:47:16;25.15;;;17.85;;
63534;SDS011;55128;50.230;18.944;2023-11-21T07:52:17;21.23;;;15.25;;
63534;SDS011;55128;50.230;18.944;2023-11-21T07:57:17;19.92;;;14.32;;
63534;SDS011;55128;50.230;18.944;2023-11-21T08:02:18;21.73;;;14.68;;
63534;SDS011;55128;50.230;18.944;2023-11-21T08:07:18;21.08;;;14.65;;
63534;SDS011;55128;50.230;18.944;2023-11-21T08:12:19;20.77;;;14.77;;
63534;SDS011;55128;50.230;18.944;2023-11-21T08:17:20;19.17;;;14.07;;
63534;SDS011;55128;50.230;18.944;2023-11-21T08:22:20;21.35;;;14.45;;
63534;SDS011;55128;50.230;18.944;2023-11-21T08:27:23;23.35;;;13.88;;
63534;SDS011;55128;50.230;18.944;2023-11-21T08:32:23;20.23;;;15.07;;
63534;SDS011;55128;50.230;18.944;2023-11-21T08:37:24;20.58;;;14.75;;
63534;SDS011;55128;50.230;18.944;2023-11-21T08:42:24;23.23;;;16.38;;
63534;SDS011;55128;50.230;18.944;2023-11-21T08:47:24;20.60;;;16.20;;
63534;SDS011;55128;50.230;18.944;2023-11-21T08:52:26;23.85;;;15.13;;
63534;SDS011;55128;50.230;18.944;2023-11-21T08:57:26;23.42;;;16.45;;
63534;SDS011;55128;50.230;18.944;2023-11-21T09:02:27;24.88;;;16.13;;
63534;SDS011;55128;50.230;18.944;2023-11-21T09:07:27;24.17;;;16.30;;
63534;SDS011;55128;50.230;18.944;2023-11-21T09:12:27;17.73;;;13.75;;
63534;SDS011;55128;50.230;18.944;2023-11-21T09:17:28;22.13;;;15.77;;
63534;SDS011;55128;50.230;18.944;2023-11-21T09:22:28;21.00;;;14.70;;
63534;SDS011;55128;50.230;18.944;2023-11-21T09:27:29;20.85;;;14.10;;
63534;SDS011;55128;50.230;18.944;2023-11-21T09:32:30;16.27;;;12.75;;
63534;SDS011;55128;50.230;18.944;2023-11-21T09:37:31;19.52;;;11.82;;
63534;SDS011;55128;50.230;18.944;2023-11-21T09:42:35;13.00;;;9.73;;
63534;SDS011;55128;50.230;18.944;2023-11-21T09:47:43;12.13;;;8.73;;
63534;SDS011;55128;50.230;18.944;2023-11-21T09:52:48;10.70;;;7.50;;
63534;SDS011;55128;50.230;18.944;2023-11-21T09:57:57;11.73;;;7.05;;
63534;SDS011;55128;50.230;18.944;2023-11-21T10:02:58;12.45;;;6.70;;
63534;SDS011;55128;50.230;18.944;2023-11-21T10:07:59;9.30;;;6.10;;
63534;SDS011;55128;50.230;18.944;2023-11-21T10:13:01;8.52;;;5.43;;
63534;SDS011;55128;50.230;18.944;2023-11-21T10:18:07;8.27;;;5.15;;
63534;SDS011;55128;50.230;18.944;2023-11-21T10:23:09;10.32;;;7.07;;
63534;SDS011;55128;50.230;18.944;2023-11-21T10:28:11;10.52;;;7.30;;
63534;SDS011;55128;50.230;18.944;2023-11-21T10:33:12;11.30;;;8.30;;
63534;SDS011;55128;50.230;18.944;2023-11-21T10:38:13;12.50;;;7.53;;
63534;SDS011;55128;50.230;18.944;2023-11-21T10:43:14;10.45;;;5.65;;
63534;SDS011;55128;50.230;18.944;2023-11-21T10:48:17;9.98;;;5.32;;
63534;SDS011;55128;50.230;18.944;2023-11-21T10:53:17;7.65;;;4.70;;
63534;SDS011;55128;50.230;18.944;2023-11-21T10:58:19;7.95;;;3.88;;
63534;SDS011;55128;50.230;18.944;2023-11-21T11:03:19;6.13;;;3.30;;
63534;SDS011;55128;50.230;18.944;2023-11-21T11:08:23;5.55;;;3.17;;
63534;SDS011;55128;50.230;18.944;2023-11-21T11:13:26;7.07;;;4.03;;
63534;SDS011;55128;50.230;18.944;2023-11-21T11:18:26;5.88;;;3.70;;
63534;SDS011;55128;50.230;18.944;2023-11-21T11:34:33;6.88;;;4.18;;
63534;SDS011;55128;50.230;18.944;2023-11-21T11:39:39;7.97;;;4.10;;
63534;SDS011;55128;50.230;18.944;2023-11-21T11:50:10;6.28;;;2.05;;
63534;SDS011;55128;50.230;18.944;2023-11-21T11:55:18;4.63;;;2.42;;
63534;SDS011;55128;50.230;18.944;2023-11-21T12:00:21;5.72;;;2.47;;
63534;SDS011;55128;50.230;18.944;2023-11-21T12:05:29;6.03;;;2.90;;
63534;SDS011;55128;50.230;18.944;2023-11-21T12:10:44;4.90;;;2.58;;
63534;SDS011;55128;50.230;18.944;2023-11-21T12:15:44;6.57;;;3.28;;
63534;SDS011;55128;50.230;18.944;2023-11-21T12:20:46;6.15;;;3.13;;
63534;SDS011;55128;50.230;18.944;2023-11-21T12:25:48;6.75;;;3.20;;
63534;SDS011;55128;50.230;18.944;2023-11-21T12:30:49;7.38;;;3.65;;
63534;SDS011;55128;50.230;18.944;2023-11-21T12:35:49;8.60;;;4.35;;
63534;SDS011;55128;50.230;18.944;2023-11-21T12:40:52;8.70;;;3.65;;
63534;SDS011;55128;50.230;18.944;2023-11-21T12:46:07;7.03;;;3.50;;
63534;SDS011;55128;50.230;18.944;2023-11-21T12:51:11;7.90;;;4.10;;
63534;SDS011;55128;50.230;18.944;2023-11-21T12:56:14;8.95;;;4.30;;
63534;SDS011;55128;50.230;18.944;2023-11-21T13:01:16;8.10;;;3.70;;
63534;SDS011;55128;50.230;18.944;2023-11-21T13:06:18;7.70;;;2.63;;
63534;SDS011;55128;50.230;18.944;2023-11-21T13:11:20;16.98;;;10.40;;
63534;SDS011;55128;50.230;18.944;2023-11-21T13:16:20;10.85;;;6.05;;
63534;SDS011;55128;50.230;18.944;2023-11-21T13:21:21;6.28;;;3.83;;
63534;SDS011;55128;50.230;18.944;2023-11-21T13:26:22;6.53;;;4.10;;
63534;SDS011;55128;50.230;18.944;2023-11-21T13:31:24;7.50;;;4.45;;
63534;SDS011;55128;50.230;18.944;2023-11-21T13:36:28;6.82;;;4.07;;
63534;SDS011;55128;50.230;18.944;2023-11-21T13:41:33;8.43;;;5.07;;
63534;SDS011;55128;50.230;18.944;2023-11-21T13:46:33;8.25;;;4.85;;
63534;SDS011;55128;50.230;18.944;2023-11-21T13:51:37;9.57;;;6.00;;
63534;SDS011;55128;50.230;18.944;2023-11-21T13:56:46;11.18;;;7.82;;
63534;SDS011;55128;50.230;18.944;2023-11-21T14:01:46;8.68;;;5.72;;
63534;SDS011;55128;50.230;18.944;2023-11-21T14:06:53;7.90;;;5.60;;
63534;SDS011;55128;50.230;18.944;2023-11-21T14:11:55;12.57;;;7.07;;
63534;SDS011;55128;50.230;18.944;2023-11-21T14:16:57;9.45;;;7.05;;
63534;SDS011;55128;50.230;18.944;2023-11-21T14:21:58;15.23;;;8.80;;
63534;SDS011;55128;50.230;18.944;2023-11-21T14:26:59;11.73;;;7.60;;
63534;SDS011;55128;50.230;18.944;2023-11-21T14:32:00;12.20;;;7.45;;
63534;SDS011;55128;50.230;18.944;2023-11-21T14:37:01;10.75;;;7.45;;
63534;SDS011;55128;50.230;18.944;2023-11-21T14:42:03;10.25;;;7.60;;
63534;SDS011;55128;50.230;18.944;2023-11-21T14:47:04;12.05;;;7.28;;
63534;SDS011;55128;50.230;18.944;2023-11-21T14:52:12;10.48;;;7.47;;
63534;SDS011;55128;50.230;18.944;2023-11-21T14:57:31;11.70;;;7.65;;
63534;SDS011;55128;50.230;18.944;2023-11-21T15:02:33;12.07;;;8.20;;
63534;SDS011;55128;50.230;18.944;2023-11-21T15:07:49;12.30;;;7.68;;
63534;SDS011;55128;50.230;18.944;2023-11-21T15:12:50;15.07;;;8.70;;
63534;SDS011;55128;50.230;18.944;2023-11-21T15:17:50;13.57;;;9.90;;
63534;SDS011;55128;50.230;18.944;2023-11-21T15:22:51;15.38;;;10.43;;
63534;SDS011;55128;50.230;18.944;2023-11-21T15:27:51;16.33;;;11.10;;
63534;SDS011;55128;50.230;18.944;2023-11-21T15:32:52;14.15;;;11.02;;
63534;SDS011;55128;50.230;18.944;2023-11-21T15:37:54;19.88;;;13.52;;
63534;SDS011;55128;50.230;18.944;2023-11-21T15:42:57;24.02;;;15.70;;
63534;SDS011;55128;50.230;18.944;2023-11-21T15:47:58;25.25;;;17.35;;
63534;SDS011;55128;50.230;18.944;2023-11-21T15:52:59;22.55;;;16.73;;
63534;SDS011;55128;50.230;18.944;2023-11-21T15:58:01;25.30;;;18.10;;
63534;SDS011;55128;50.230;18.944;2023-11-21T16:03:04;24.10;;;18.88;;
63534;SDS011;55128;50.230;18.944;2023-11-21T16:08:05;28.13;;;20.67;;
63534;SDS011;55128;50.230;18.944;2023-11-21T16:13:05;32.50;;;22.73;;
63534;SDS011;55128;50.230;18.944;2023-11-21T16:18:08;34.05;;;25.27;;
63534;SDS011;55128;50.230;18.944;2023-11-21T16:23:10;36.38;;;26.65;;
63534;SDS011;55128;50.230;18.944;2023-11-21T16:28:11;31.77;;;25.13;;
63534;SDS011;55128;50.230;18.944;2023-11-21T16:33:11;35.13;;;27.00;;
63534;SDS011;55128;50.230;18.944;2023-11-21T16:38:12;37.08;;;27.70;;
63534;SDS011;55128;50.230;18.944;2023-11-21T16:43:12;34.63;;;26.15;;
63534;SDS011;55128;50.230;18.944;2023-11-21T16:48:12;35.83;;;27.15;;
63534;SDS011;55128;50.230;18.944;2023-11-21T16:53:13;35.90;;;26.80;;
63534;SDS011;55128;50.230;18.944;2023-11-21T16:58:14;40.35;;;28.15;;
63534;SDS011;55128;50.230;18.944;2023-11-21T17:03:15;45.75;;;27.45;;
63534;SDS011;55128;50.230;18.944;2023-11-21T17:08:16;61.55;;;37.22;;
63534;SDS011;55128;50.230;18.944;2023-11-21T17:13:18;73.30;;;33.40;;
63534;SDS011;55128;50.230;18.944;2023-11-21T17:18:19;27.77;;;16.73;;
63534;SDS011;55128;50.230;18.944;2023-11-21T17:23:19;35.97;;;21.63;;
63534;SDS011;55128;50.230;18.944;2023-11-21T17:28:20;28.80;;;19.98;;
63534;SDS011;55128;50.230;18.944;2023-11-21T17:33:20;25.50;;;17.67;;
63534;SDS011;55128;50.230;18.944;2023-11-21T17:38:21;31.52;;;20.40;;
63534;SDS011;55128;50.230;18.944;2023-11-21T17:43:21;22.25;;;14.23;;
63534;SDS011;55128;50.230;18.944;2023-11-21T17:48:22;23.42;;;14.40;;
63534;SDS011;55128;50.230;18.944;2023-11-21T17:53:26;21.17;;;12.95;;
63534;SDS011;55128;50.230;18.944;2023-11-21T17:58:26;26.60;;;15.18;;
63534;SDS011;55128;50.230;18.944;2023-11-21T18:03:27;30.50;;;17.58;;
63534;SDS011;55128;50.230;18.944;2023-11-21T18:08:28;25.90;;;15.07;;
63534;SDS011;55128;50.230;18.944;2023-11-21T18:13:28;21.80;;;14.65;;
63534;SDS011;55128;50.230;18.944;2023-11-21T18:18:29;24.38;;;16.80;;
63534;SDS011;55128;50.230;18.944;2023-11-21T18:23:29;24.23;;;17.10;;
63534;SDS011;55128;50.230;18.944;2023-11-21T18:28:29;27.58;;;18.80;;
63534;SDS011;55128;50.230;18.944;2023-11-21T18:33:30;21.25;;;14.40;;
63534;SDS011;55128;50.230;18.944;2023-11-21T18:38:30;23.50;;;16.77;;
63534;SDS011;55128;50.230;18.944;2023-11-21T18:43:31;17.77;;;12.82;;
63534;SDS011;55128;50.230;18.944;2023-11-21T18:48:31;20.27;;;11.15;;
63534;SDS011;55128;50.230;18.944;2023-11-21T18:53:32;16.75;;;10.50;;
63534;SDS011;55128;50.230;18.944;2023-11-21T18:58:35;18.55;;;11.20;;
63534;SDS011;55128;50.230;18.944;2023-11-21T19:03:36;16.83;;;10.95;;
63534;SDS011;55128;50.230;18.944;2023-11-21T19:08:36;16.70;;;12.27;;
63534;SDS011;55128;50.230;18.944;2023-11-21T19:13:37;16.15;;;11.82;;
63534;SDS011;55128;50.230;18.944;2023-11-21T19:18:37;13.90;;;11.00;;
63534;SDS011;55128;50.230;18.944;2023-11-21T19:23:38;13.23;;;11.05;;
63534;SDS011;55128;50.230;18.944;2023-11-21T19:28:38;12.27;;;7.53;;
63534;SDS011;55128;50.230;18.944;2023-11-21T19:33:39;13.38;;;8.98;;
63534;SDS011;55128;50.230;18.944;2023-11-21T19:38:39;12.15;;;8.43;;
63534;SDS011;55128;50.230;18.944;2023-11-21T19:43:40;9.95;;;7.10;;
63534;SDS011;55128;50.230;18.944;2023-11-21T19:48:44;9.35;;;5.55;;
63534;SDS011;55128;50.230;18.944;2023-11-21T19:53:46;10.18;;;6.05;;
63534;SDS011;55128;50.230;18.944;2023-11-21T19:58:47;7.78;;;5.30;;
63534;SDS011;55128;50.230;18.944;2023-11-21T20:03:49;8.90;;;5.30;;
63534;SDS011;55128;50.230;18.944;2023-11-21T20:08:51;9.80;;;5.20;;
63534;SDS011;55128;50.230;18.944;2023-11-21T20:13:52;8.18;;;4.65;;
63534;SDS011;55128;50.230;18.944;2023-11-21T20:18:52;29.73;;;13.15;;
63534;SDS011;55128;50.230;18.944;2023-11-21T20:23:53;10.15;;;4.60;;
63534;SDS011;55128;50.230;18.944;2023-11-21T20:28:53;7.45;;;5.22;;
63534;SDS011;55128;50.230;18.944;2023-11-21T20:33:56;10.27;;;8.45;;
63534;SDS011;55128;50.230;18.944;2023-11-21T20:38:56;20.02;;;17.00;;
63534;SDS011;55128;50.230;18.944;2023-11-21T20:44:03;12.52;;;8.98;;
63534;SDS011;55128;50.230;18.944;2023-11-21T20:49:05;16.10;;;11.70;;
63534;SDS011;55128;50.230;18.944;2023-11-21T20:54:06;12.90;;;10.57;;
63534;SDS011;55128;50.230;18.944;2023-11-21T20:59:07;17.35;;;13.70;;
63534;SDS011;55128;50.230;18.944;2023-11-21T21:04:07;11.60;;;8.05;;
63534;SDS011;55128;50.230;18.944;2023-11-21T21:09:08;15.48;;;10.77;;
63534;SDS011;55128;50.230;18.944;2023-11-21T21:14:09;20.70;;;12.10;;
63534;SDS011;55128;50.230;18.944;2023-11-21T21:19:12;17.25;;;11.68;;
63534;SDS011;55128;50.230;18.944;2023-11-21T21:24:23;19.05;;;14.52;;
63534;SDS011;55128;50.230;18.944;2023-11-21T21:29:23;15.18;;;10.50;;
63534;SDS011;55128;50.230;18.944;2023-11-21T21:34:25;19.02;;;13.73;;
63534;SDS011;55128;50.230;18.944;2023-11-21T21:39:26;21.75;;;13.70;;
63534;SDS011;55128;50.230;18.944;2023-11-21T21:44:26;19.10;;;12.95;;
63534;SDS011;55128;50.230;18.944;2023-11-21T21:49:27;15.80;;;12.25;;
63534;SDS011;55128;50.230;18.944;2023-11-21T21:54:27;19.40;;;14.65;;
63534;SDS011;55128;50.230;18.944;2023-11-21T21:59:28;21.95;;;15.73;;
63534;SDS011;55128;50.230;18.944;2023-11-21T22:04:28;19.27;;;14.20;;
63534;SDS011;55128;50.230;18.944;2023-11-21T22:09:33;21.77;;;16.02;;
63534;SDS011;55128;50.230;18.944;2023-11-21T22:14:36;23.23;;;16.15;;
63534;SDS011;55128;50.230;18.944;2023-11-21T22:19:37;23.15;;;16.50;;
63534;SDS011;55128;50.230;18.944;2023-11-21T22:24:37;33.72;;;23.80;;
63534;SDS011;55128;50.230;18.944;2023-11-21T22:29:38;28.33;;;18.55;;
63534;SDS011;55128;50.230;18.944;2023-11-21T22:34:39;24.48;;;17.27;;
63534;SDS011;55128;50.230;18.944;2023-11-21T22:39:40;25.85;;;17.80;;
63534;SDS011;55128;50.230;18.944;2023-11-21T22:44:41;31.17;;;21.00;;
63534;SDS011;55128;50.230;18.944;2023-11-21T22:49:42;27.30;;;18.52;;
63534;SDS011;55128;50.230;18.944;2023-11-21T22:54:42;25.60;;;16.98;;
63534;SDS011;55128;50.230;18.944;2023-11-21T22:59:43;27.45;;;15.95;;
63534;SDS011;55128;50.230;18.944;2023-11-21T23:04:44;22.25;;;14.95;;
63534;SDS011;55128;50.230;18.944;2023-11-21T23:09:44;21.83;;;14.70;;
63534;SDS011;55128;50.230;18.944;2023-11-21T23:14:46;20.35;;;12.95;;
63534;SDS011;55128;50.230;18.944;2023-11-21T23:19:46;20.50;;;12.90;;
63534;SDS011;55128;50.230;18.944;2023-11-21T23:24:46;17.17;;;12.30;;
63534;SDS011;55128;50.230;18.944;2023-11-21T23:29:48;19.02;;;13.32;;
63534;SDS011;55128;50.230;18.944;2023-11-21T23:34:53;21.83;;;13.63;;
63534;SDS011;55128;50.230;18.944;2023-11-21T23:39:53;24.95;;;15.23;;
63534;SDS011;55128;50.230;18.944;2023-11-21T23:44:54;25.08;;;16.38;;
63534;SDS011;55128;50.230;18.944;2023-11-21T23:49:55;23.35;;;16.25;;
63534;SDS011;55128;50.230;18.944;2023-11-21T23:54:55;26.60;;;17.25;;
63534;SDS011;55128;50.230;18.944;2023-11-21T23:59:56;25.58;;;16.95;;
